Cross River, New York
Current Conditions -  °F | °C
As of 1:08 PM on Thursday 27 Nov 2014 (Local Time) from KDXR Reporting Station
Overcast Overcast  
Wind Chill: 28°   Ceiling: 1800
Heat Index: 34°   Visibility: 9mi
Dew Point: 26°   Wind: 7mph
Humidity: 73%   Direction: 340°NNW
Pressure: 29.96"   Gusts: NA
Location:  41.26°N, 73.61°W
Report Text: KDXR 271808Z 34006KT 9SM BKN018 BKN041 OVC065 01/M03 A2996 RMK AO2 T00111033
Loading
Personal Weather Stations






























Interactive Weather Map New forecast layout! Learn more

10-Day Weather Forecast

Advertisements
Track Severe Weather on mobile